Terminal Aerodrome Forecast
Issued by NWS

Home | Current Version | Previous Version | Text Only | Print | Product List | Glossary On
Versions: 1 2 3 4 5 6 7 8 9 10 11 12 13 14
000
FTUS42 TJSJ 221734
TAFNCM
TAF
TNCM 221734Z 2218/2318 08012KT P6SM FEW020 SCT035
     FM230400 08009KT P6SM VCSH SCT018 BKN035
     FM231400 10014KT P6SM SCT022=

USA.gov is the U.S. government's official web portal to all federal, state and local government web resources and services.